createdAt,value
2018-06-25T00:00:34.549Z,10.17
2018-06-25T00:03:03.303Z,8.10
2018-06-25T00:05:32.038Z,7.87
2018-06-25T00:08:00.863Z,9.00
2018-06-25T00:10:29.640Z,13.93
2018-06-25T00:12:58.458Z,7.70
2018-06-25T00:15:27.130Z,8.30
2018-06-25T00:17:55.943Z,7.80
2018-06-25T00:20:24.712Z,7.03
2018-06-25T00:22:53.307Z,6.40
2018-06-25T00:25:21.808Z,11.43
2018-06-25T00:27:50.444Z,8.13
2018-06-25T00:30:19.240Z,7.93
2018-06-25T00:32:47.823Z,8.83
2018-06-25T00:35:16.444Z,7.00
2018-06-25T00:37:45.294Z,7.27
2018-06-25T00:40:14.045Z,6.67
2018-06-25T00:42:42.896Z,11.47
2018-06-25T00:45:11.789Z,6.67
2018-06-25T00:47:40.570Z,6.33
2018-06-25T00:50:09.466Z,8.57
2018-06-25T00:52:38.184Z,6.93
2018-06-25T00:55:07.050Z,6.83
2018-06-25T00:57:35.886Z,7.07
2018-06-25T01:00:05.110Z,8.07
2018-06-25T01:02:33.944Z,7.47
2018-06-25T01:05:02.689Z,10.27
2018-06-25T01:07:31.452Z,9.73
2018-06-25T01:10:00.293Z,9.80
2018-06-25T01:12:29.070Z,12.50
2018-06-25T01:14:57.864Z,9.97
2018-06-25T01:17:26.622Z,10.53
2018-06-25T01:19:55.448Z,10.03
2018-06-25T01:22:24.233Z,12.47
2018-06-25T01:24:52.974Z,10.63
2018-06-25T01:27:21.700Z,11.40
2018-06-25T01:29:50.587Z,12.20
2018-06-25T01:32:19.321Z,13.73
2018-06-25T01:34:48.181Z,11.50
2018-06-25T01:37:16.967Z,10.00
2018-06-25T01:39:45.712Z,15.47
2018-06-25T01:42:14.465Z,14.73
2018-06-25T01:44:43.256Z,12.70
2018-06-25T01:47:12.037Z,13.03
2018-06-25T01:49:40.787Z,14.90
2018-06-25T01:52:09.352Z,14.93
2018-06-25T01:54:37.999Z,16.77
2018-06-25T01:57:06.736Z,20.00
2018-06-25T01:59:35.485Z,15.90
2018-06-25T02:02:04.256Z,17.07
2018-06-25T02:04:33.028Z,17.93
2018-06-25T02:07:01.806Z,14.80
2018-06-25T02:09:30.355Z,17.17
2018-06-25T02:11:59.104Z,15.47
2018-06-25T02:14:27.944Z,18.60
2018-06-25T02:16:56.687Z,17.50
2018-06-25T02:19:25.454Z,16.30
2018-06-25T02:21:54.232Z,15.43
2018-06-25T02:24:22.993Z,17.03
2018-06-25T02:26:51.832Z,14.37
2018-06-25T02:29:20.611Z,13.50
2018-06-25T02:31:49.361Z,13.50
2018-06-25T02:34:18.121Z,10.80
2018-06-25T02:36:47.076Z,12.97
2018-06-25T02:39:15.796Z,11.97
2018-06-25T02:41:44.540Z,10.00
2018-06-25T02:44:13.352Z,12.17
2018-06-25T02:46:42.133Z,10.70
2018-06-25T02:49:10.864Z,10.00
2018-06-25T02:51:39.625Z,10.13
2018-06-25T02:54:08.382Z,9.33
2018-06-25T02:56:36.988Z,9.80
2018-06-25T02:59:05.485Z,10.33
2018-06-25T03:01:34.066Z,9.27
2018-06-25T03:04:02.879Z,9.57
2018-06-25T03:06:31.722Z,9.90
2018-06-25T03:09:00.633Z,11.90
2018-06-25T03:11:29.517Z,9.83
2018-06-25T03:13:58.239Z,9.43
2018-06-25T03:16:26.990Z,9.57
2018-06-25T03:18:55.718Z,9.17
2018-06-25T03:21:24.460Z,11.07
2018-06-25T03:23:53.243Z,9.97
2018-06-25T03:26:22.045Z,8.67
2018-06-25T03:28:50.893Z,9.50
2018-06-25T03:31:19.783Z,10.23
2018-06-25T03:33:48.482Z,9.33
2018-06-25T03:36:17.266Z,10.03
2018-06-25T03:38:45.946Z,11.13
2018-06-25T03:41:14.694Z,9.50
2018-06-25T03:43:43.461Z,12.67
2018-06-25T03:46:12.198Z,9.43
2018-06-25T03:48:40.920Z,13.53
2018-06-25T03:51:09.717Z,11.43
2018-06-25T03:53:38.513Z,14.00
2018-06-25T03:56:07.305Z,11.47
2018-06-25T03:58:36.024Z,12.43
2018-06-25T04:01:04.965Z,9.43
2018-06-25T04:03:33.785Z,12.37
2018-06-25T04:06:02.585Z,11.63
2018-06-25T04:08:31.353Z,11.60
2018-06-25T04:11:00.131Z,10.37
2018-06-25T04:13:28.917Z,12.40
2018-06-25T04:15:57.718Z,9.17
2018-06-25T04:18:26.459Z,11.23
2018-06-25T04:20:55.299Z,10.07
2018-06-25T04:23:24.106Z,14.30
2018-06-25T04:25:52.900Z,13.73
2018-06-25T04:28:21.703Z,15.13
2018-06-25T04:30:50.484Z,11.83
2018-06-25T04:33:19.229Z,12.33
2018-06-25T04:35:47.968Z,15.50
2018-06-25T04:38:17.568Z,12.73
2018-06-25T04:40:46.343Z,11.60
2018-06-25T04:43:15.111Z,13.37
2018-06-25T04:45:43.921Z,13.13
2018-06-25T04:48:12.636Z,18.20
2018-06-25T04:50:41.448Z,13.43
2018-06-25T04:53:10.185Z,16.20
2018-06-25T04:55:38.968Z,14.37
2018-06-25T04:58:07.789Z,13.93
2018-06-25T05:00:36.625Z,16.87
2018-06-25T05:03:05.933Z,15.67
2018-06-25T05:05:34.684Z,15.37
2018-06-25T05:08:03.499Z,13.37
2018-06-25T05:10:32.309Z,18.00
2018-06-25T05:13:01.085Z,16.07
2018-06-25T05:15:29.872Z,12.13
2018-06-25T05:17:58.630Z,15.83
2018-06-25T05:20:27.444Z,12.23
2018-06-25T05:22:56.207Z,12.67
2018-06-25T05:25:25.040Z,10.67
2018-06-25T05:27:53.807Z,13.40
2018-06-25T05:30:22.393Z,17.73
2018-06-25T05:32:51.041Z,13.53
2018-06-25T05:35:19.795Z,14.30
2018-06-25T05:37:48.544Z,11.27
2018-06-25T05:40:17.114Z,15.50
2018-06-25T05:42:45.730Z,14.03
2018-06-25T05:45:14.510Z,12.77
2018-06-25T05:47:43.107Z,19.20
2018-06-25T05:50:11.607Z,15.53
2018-06-25T05:52:40.260Z,12.00
2018-06-25T05:55:09.059Z,20.77
2018-06-25T05:57:37.758Z,13.87
2018-06-25T06:00:06.303Z,18.87
2018-06-25T06:02:34.919Z,28.47
2018-06-25T06:05:03.673Z,32.87
2018-06-25T06:07:32.456Z,25.33
2018-06-25T06:10:01.199Z,35.13
2018-06-25T06:12:29.956Z,34.23
2018-06-25T06:14:58.696Z,29.47
2018-06-25T06:17:27.583Z,56.77
2018-06-25T06:19:56.245Z,75.40
2018-06-25T06:22:24.988Z,32.13
2018-06-25T06:24:53.736Z,34.00
2018-06-25T06:27:23.025Z,43.30
2018-06-25T06:29:51.824Z,45.03
2018-06-25T06:32:20.674Z,50.60
2018-06-25T06:34:49.491Z,63.40
2018-06-25T06:37:18.164Z,40.90
2018-06-25T06:39:46.954Z,37.03
2018-06-25T06:42:15.742Z,71.03
2018-06-25T06:44:44.450Z,41.83
2018-06-25T06:47:13.067Z,45.27
2018-06-25T06:49:41.821Z,39.13
2018-06-25T06:52:10.591Z,42.10
2018-06-25T06:54:39.379Z,33.53
2018-06-25T06:57:08.112Z,31.73
2018-06-25T06:59:36.976Z,37.20
2018-06-25T07:02:05.734Z,31.73
2018-06-25T07:04:34.505Z,46.73
2018-06-25T07:07:03.252Z,42.27
2018-06-25T07:09:32.033Z,41.53
2018-06-25T07:12:00.900Z,38.50
2018-06-25T07:14:29.683Z,31.63
2018-06-25T07:16:58.478Z,32.50
2018-06-25T07:19:27.268Z,28.53
2018-06-25T07:21:56.063Z,26.97
2018-06-25T07:24:24.847Z,25.47
2018-06-25T07:26:53.633Z,21.27
2018-06-25T07:29:22.372Z,26.23
2018-06-25T07:31:51.130Z,25.63
2018-06-25T07:34:19.865Z,23.97
2018-06-25T07:36:48.728Z,21.70
2018-06-25T07:39:17.664Z,23.20
2018-06-25T07:41:46.216Z,25.07
2018-06-25T07:44:14.848Z,18.00
2018-06-25T07:46:43.657Z,19.97
2018-06-25T07:49:12.432Z,15.00
2018-06-25T07:51:41.226Z,16.10
2018-06-25T07:54:10.011Z,13.97
2018-06-25T07:56:38.796Z,15.23
2018-06-25T07:59:07.670Z,15.73
2018-06-25T08:01:36.664Z,16.03
2018-06-25T08:04:05.250Z,15.33
2018-06-25T08:06:33.959Z,13.77
2018-06-25T08:09:02.771Z,19.13
2018-06-25T08:11:31.505Z,18.97
2018-06-25T08:14:00.094Z,14.17
2018-06-25T08:16:28.839Z,13.93
2018-06-25T08:18:57.583Z,15.30
2018-06-25T08:21:26.468Z,13.40
2018-06-25T08:23:55.212Z,15.87
2018-06-25T08:26:24.074Z,13.70
2018-06-25T08:28:52.839Z,21.10
2018-06-25T08:31:21.579Z,11.73
2018-06-25T08:33:50.353Z,16.63
2018-06-25T08:36:18.914Z,11.23
2018-06-25T08:38:47.367Z,12.37
2018-06-25T08:41:16.079Z,19.03
2018-06-25T08:43:44.867Z,19.77
2018-06-25T08:46:13.661Z,11.10
2018-06-25T08:48:42.418Z,13.27
2018-06-25T08:51:10.971Z,13.30
2018-06-25T08:53:39.624Z,16.80
2018-06-25T08:56:08.424Z,17.27
2018-06-25T08:58:37.180Z,13.13
2018-06-25T09:01:06.074Z,19.47
2018-06-25T09:03:34.875Z,21.90
2018-06-25T09:06:03.649Z,11.80
2018-06-25T09:08:32.448Z,15.67
2018-06-25T09:11:01.342Z,10.23
2018-06-25T09:13:30.125Z,11.53
2018-06-25T09:15:58.936Z,16.47
2018-06-25T09:18:27.766Z,14.83
2018-06-25T09:20:56.499Z,17.13
2018-06-25T09:23:25.274Z,13.13
2018-06-25T09:25:54.023Z,17.37
2018-06-25T09:28:22.805Z,14.70
2018-06-25T09:30:51.548Z,13.63
2018-06-25T09:33:20.339Z,12.73
2018-06-25T09:35:49.117Z,10.63
2018-06-25T09:38:17.841Z,11.43
2018-06-25T09:40:46.617Z,12.33
2018-06-25T09:43:15.342Z,13.87
2018-06-25T09:45:44.123Z,12.33
2018-06-25T09:48:12.845Z,13.03
2018-06-25T09:50:41.590Z,7.97
2018-06-25T09:53:10.354Z,11.83
2018-06-25T09:55:39.125Z,12.50
2018-06-25T09:58:07.866Z,10.87
2018-06-25T10:00:42.172Z,14.00
2018-06-25T10:03:10.908Z,15.73
2018-06-25T10:05:40.419Z,16.47
2018-06-25T10:08:09.199Z,14.40
2018-06-25T10:10:37.852Z,10.13
2018-06-25T10:13:06.507Z,10.30
2018-06-25T10:15:35.257Z,12.53
2018-06-25T10:18:03.867Z,8.40
2018-06-25T10:20:32.570Z,11.30
2018-06-25T10:23:01.218Z,12.70
2018-06-25T10:25:29.953Z,13.63
2018-06-25T10:27:58.683Z,10.93
2018-06-25T10:30:27.281Z,9.63
2018-06-25T10:32:55.867Z,20.10
2018-06-25T10:35:24.608Z,14.63
2018-06-25T10:37:53.350Z,13.27
2018-06-25T10:40:22.078Z,15.90
2018-06-25T10:42:50.838Z,8.47
2018-06-25T10:45:19.602Z,12.37
2018-06-25T10:47:48.525Z,12.43
2018-06-25T10:50:17.261Z,7.50
2018-06-25T10:52:46.002Z,9.83
2018-06-25T10:55:14.781Z,9.33
2018-06-25T10:57:43.756Z,7.27
2018-06-25T11:00:12.748Z,12.13
2018-06-25T11:02:41.335Z,8.67
2018-06-25T11:05:10.232Z,13.73
2018-06-25T11:07:39.112Z,14.17
2018-06-25T11:10:07.793Z,9.57
2018-06-25T11:12:36.388Z,7.23
2018-06-25T11:15:05.824Z,10.10
2018-06-25T11:17:34.566Z,11.37
2018-06-25T11:20:03.156Z,12.13
2018-06-25T11:22:31.853Z,10.03
2018-06-25T11:25:00.633Z,9.87
2018-06-25T11:27:29.540Z,10.83
2018-06-25T11:29:59.007Z,12.07
2018-06-25T11:32:27.761Z,12.30
2018-06-25T11:34:56.500Z,9.57
2018-06-25T11:37:25.100Z,10.20
2018-06-25T11:39:53.568Z,10.20
2018-06-25T11:42:22.247Z,9.73
2018-06-25T11:44:50.965Z,13.33
2018-06-25T11:47:19.702Z,7.87
2018-06-25T11:49:48.574Z,11.33
2018-06-25T11:52:17.343Z,9.00
2018-06-25T11:54:46.104Z,8.00
2018-06-25T11:57:14.845Z,8.77
2018-06-25T11:59:43.612Z,8.07
2018-06-25T12:02:12.520Z,9.80
2018-06-25T12:04:41.273Z,11.07
2018-06-25T12:07:10.006Z,5.90
2018-06-25T12:09:39.862Z,8.70
2018-06-25T12:12:08.654Z,10.67
2018-06-25T12:14:37.360Z,8.23
2018-06-25T12:17:06.854Z,11.27
2018-06-25T12:19:35.844Z,8.53
2018-06-25T12:22:04.652Z,9.17
2018-06-25T12:24:33.424Z,6.53
2018-06-25T12:27:02.153Z,7.03
2018-06-25T12:29:30.929Z,7.43
2018-06-25T12:31:59.679Z,8.23
2018-06-25T12:34:28.462Z,9.23
2018-06-25T12:36:57.489Z,6.13
2018-06-25T12:39:26.245Z,9.57
2018-06-25T12:41:54.816Z,8.10
2018-06-25T12:44:23.443Z,11.37
2018-06-25T12:46:52.199Z,8.77
2018-06-25T12:49:20.759Z,10.60
2018-06-25T12:54:24.627Z,8.27
2018-06-25T12:56:53.600Z,7.37
2018-06-25T12:59:23.165Z,12.47
2018-06-25T13:01:52.034Z,5.13
2018-06-25T13:04:20.740Z,8.00
2018-06-25T13:06:49.496Z,7.10
2018-06-25T13:09:18.216Z,10.67
2018-06-25T13:11:46.968Z,6.70
2018-06-25T13:14:15.725Z,7.43
2018-06-25T13:16:44.320Z,8.77
2018-06-25T13:19:13.000Z,5.30
2018-06-25T13:21:42.057Z,9.07
2018-06-25T13:24:11.181Z,6.20
2018-06-25T13:26:39.912Z,14.53
2018-06-25T13:29:08.693Z,5.90
2018-06-25T13:31:37.494Z,7.10
2018-06-25T13:34:06.235Z,6.80
2018-06-25T13:36:34.883Z,6.10
2018-06-25T13:39:06.013Z,7.53
2018-06-25T13:41:34.781Z,4.57
2018-06-25T13:44:03.709Z,8.70
2018-06-25T13:46:33.600Z,7.00
2018-06-25T13:49:02.388Z,11.30
2018-06-25T13:51:31.213Z,7.27
2018-06-25T13:53:59.966Z,7.30
2018-06-25T13:56:28.707Z,5.53
2018-06-25T13:58:57.437Z,5.53
2018-06-25T14:01:26.205Z,8.40
2018-06-25T14:03:54.814Z,8.00
2018-06-25T14:06:23.294Z,6.97
2018-06-25T14:08:51.729Z,6.30
2018-06-25T14:11:20.394Z,6.30
2018-06-25T14:13:49.164Z,5.73
2018-06-25T14:16:17.974Z,11.30
2018-06-25T14:18:46.693Z,6.90
2018-06-25T14:21:15.533Z,7.37
2018-06-25T14:23:49.652Z,6.97
2018-06-25T14:26:18.502Z,6.47
2018-06-25T14:28:47.044Z,5.70
2018-06-25T14:31:21.266Z,5.10
2018-06-25T14:33:55.604Z,5.57
2018-06-25T14:36:24.341Z,4.60
2018-06-25T14:38:53.180Z,6.63
2018-06-25T14:41:21.942Z,7.33
2018-06-25T14:43:50.657Z,5.77
2018-06-25T14:46:19.424Z,8.20
2018-06-25T14:48:48.176Z,5.07
2018-06-25T14:51:16.973Z,8.27
2018-06-25T14:53:45.737Z,4.43
2018-06-25T14:56:14.493Z,6.80
2018-06-25T14:58:43.258Z,4.73
2018-06-25T15:01:11.994Z,5.23
2018-06-25T15:03:40.538Z,6.67
2018-06-25T15:06:09.211Z,9.43
2018-06-25T15:08:37.946Z,6.03
2018-06-25T15:11:06.538Z,6.53
2018-06-25T15:13:35.166Z,6.97
2018-06-25T15:16:04.165Z,5.40
2018-06-25T15:18:32.924Z,5.83
2018-06-25T15:21:01.636Z,6.30
2018-06-25T15:23:30.390Z,5.90
2018-06-25T15:25:59.150Z,6.07
2018-06-25T15:28:27.927Z,7.67
2018-06-25T15:30:56.734Z,10.43
2018-06-25T15:33:25.356Z,6.10
2018-06-25T15:35:53.992Z,7.97
2018-06-25T15:38:22.718Z,6.60
2018-06-25T15:40:51.528Z,8.70
2018-06-25T15:43:20.305Z,11.33
2018-06-25T15:45:49.377Z,8.27
2018-06-25T15:48:17.944Z,6.13
2018-06-25T15:50:46.654Z,6.63
2018-06-25T15:53:15.361Z,13.90
2018-06-25T15:55:44.123Z,9.37
2018-06-25T15:58:12.935Z,8.10
2018-06-25T16:00:41.978Z,11.07
2018-06-25T16:03:10.725Z,9.93
2018-06-25T16:05:39.487Z,8.93
2018-06-25T16:08:08.252Z,10.10
2018-06-25T16:10:37.044Z,9.60
2018-06-25T16:13:05.868Z,11.37
2018-06-25T16:15:34.658Z,9.30
2018-06-25T16:18:03.487Z,11.63
2018-06-25T16:20:32.310Z,7.77
2018-06-25T16:23:00.900Z,7.50
2018-06-25T16:25:29.565Z,9.63
2018-06-25T16:27:59.055Z,8.03
2018-06-25T16:30:27.851Z,6.17
2018-06-25T16:32:56.634Z,6.63
2018-06-25T16:35:25.515Z,3.93
2018-06-25T16:37:55.052Z,6.53
2018-06-25T16:40:23.651Z,5.93
2018-06-25T16:42:52.376Z,4.60
2018-06-25T16:45:21.143Z,4.70
2018-06-25T16:47:50.071Z,7.87
2018-06-25T16:50:18.919Z,7.20
2018-06-25T16:52:47.683Z,6.93
2018-06-25T16:55:16.493Z,5.07
2018-06-25T16:57:45.489Z,7.27
2018-06-25T17:00:14.261Z,6.73
2018-06-25T17:02:42.846Z,17.00
2018-06-25T17:05:11.500Z,3.60
2018-06-25T17:07:40.280Z,5.73
2018-06-25T17:10:09.230Z,5.60
2018-06-25T17:12:37.993Z,4.53
2018-06-25T17:15:06.732Z,5.20
2018-06-25T17:17:35.384Z,6.03
2018-06-25T17:20:04.219Z,4.23
2018-06-25T17:22:32.896Z,18.27
2018-06-25T17:25:01.700Z,5.27
2018-06-25T17:27:31.148Z,4.97
2018-06-25T17:29:59.912Z,5.47
2018-06-25T17:32:28.775Z,5.53
2018-06-25T17:34:57.550Z,5.87
2018-06-25T17:37:26.838Z,4.73
2018-06-25T17:39:55.599Z,9.63
2018-06-25T17:42:24.231Z,6.43
2018-06-25T17:44:52.662Z,5.10
2018-06-25T17:47:21.272Z,5.87
2018-06-25T17:49:50.096Z,5.80
2018-06-25T17:52:18.890Z,4.87
2018-06-25T17:54:47.734Z,5.77
2018-06-25T17:57:16.514Z,6.50
2018-06-25T17:59:45.458Z,5.40
2018-06-25T18:02:14.219Z,7.27
2018-06-25T18:04:43.259Z,7.13
2018-06-25T18:07:12.339Z,12.27
2018-06-25T18:09:41.072Z,10.43
2018-06-25T18:12:09.807Z,6.53
2018-06-25T18:14:38.633Z,10.20
2018-06-25T18:17:07.397Z,11.03
2018-06-25T18:19:36.122Z,8.07
2018-06-25T18:22:04.905Z,7.30
2018-06-25T18:24:33.607Z,10.47
2018-06-25T18:27:02.364Z,7.00
2018-06-25T18:29:31.736Z,7.93
2018-06-25T18:32:00.575Z,10.87
2018-06-25T18:34:29.309Z,7.23
2018-06-25T18:36:58.055Z,6.63
2018-06-25T18:39:26.645Z,8.10
2018-06-25T18:41:55.170Z,9.97
2018-06-25T18:44:23.800Z,8.53
2018-06-25T18:46:52.395Z,7.97
2018-06-25T18:49:21.016Z,8.43
2018-06-25T18:51:49.754Z,9.83
2018-06-25T18:54:18.384Z,10.00
2018-06-25T18:56:46.997Z,18.77
2018-06-25T18:59:15.822Z,15.90
2018-06-25T19:01:44.581Z,13.77
2018-06-25T19:04:13.394Z,11.53
2018-06-25T19:06:42.010Z,11.57
2018-06-25T19:09:11.717Z,13.93
2018-06-25T19:11:40.548Z,9.57
2018-06-25T19:14:09.298Z,12.37
2018-06-25T19:16:38.052Z,10.73
2018-06-25T19:19:06.653Z,12.87
2018-06-25T19:21:35.344Z,12.40
2018-06-25T19:24:04.140Z,11.57
2018-06-25T19:26:32.985Z,17.57
2018-06-25T19:29:01.713Z,13.67
2018-06-25T19:31:30.483Z,9.43
2018-06-25T19:33:59.358Z,12.00
2018-06-25T19:36:28.291Z,13.43
2018-06-25T19:38:57.104Z,11.57
2018-06-25T19:41:25.883Z,12.70
2018-06-25T19:43:54.699Z,13.50
2018-06-25T19:46:23.428Z,11.20
2018-06-25T19:48:52.319Z,12.73
2018-06-25T19:51:20.896Z,13.57
2018-06-25T19:53:49.677Z,12.87
2018-06-25T19:56:18.359Z,14.33
2018-06-25T19:58:47.280Z,16.27
2018-06-25T20:01:16.055Z,12.60
2018-06-25T20:03:44.766Z,15.37
2018-06-25T20:06:13.484Z,14.63
2018-06-25T20:08:42.043Z,12.60
2018-06-25T20:11:10.499Z,13.23
2018-06-25T20:13:39.136Z,13.70
2018-06-25T20:16:07.952Z,13.13
2018-06-25T20:18:36.706Z,14.13
2018-06-25T20:21:06.037Z,17.53
2018-06-25T20:23:34.795Z,13.57
2018-06-25T20:26:03.668Z,12.97
2018-06-25T20:28:32.434Z,15.77
2018-06-25T20:31:00.989Z,22.03
2018-06-25T20:33:29.671Z,21.57
2018-06-25T20:35:58.460Z,15.30
2018-06-25T20:38:27.252Z,17.90
2018-06-25T20:40:56.046Z,15.60
2018-06-25T20:43:24.985Z,13.93
2018-06-25T20:45:53.904Z,16.90
2018-06-25T20:48:22.725Z,15.03
2018-06-25T20:50:51.457Z,16.10
2018-06-25T20:53:20.283Z,15.27
2018-06-25T20:55:49.086Z,12.90
2018-06-25T20:58:17.886Z,14.73
2018-06-25T21:00:46.575Z,16.60
2018-06-25T21:03:15.452Z,10.60
2018-06-25T21:05:44.210Z,18.97
2018-06-25T21:08:12.980Z,30.90
2018-06-25T21:10:41.865Z,19.40
2018-06-25T21:13:10.628Z,20.97
2018-06-25T21:15:39.473Z,16.63
2018-06-25T21:18:08.294Z,24.43
2018-06-25T21:20:36.927Z,22.67
2018-06-25T21:23:05.941Z,14.43
2018-06-25T21:25:34.728Z,18.67
2018-06-25T21:28:03.534Z,17.57
2018-06-25T21:30:32.322Z,14.13
2018-06-25T21:33:01.154Z,16.23
2018-06-25T21:35:29.968Z,17.03
2018-06-25T21:37:58.775Z,15.17
2018-06-25T21:40:27.627Z,27.37
2018-06-25T21:42:56.367Z,15.27
2018-06-25T21:45:25.134Z,15.97
2018-06-25T21:47:54.527Z,18.00
2018-06-25T21:50:23.419Z,20.03
2018-06-25T21:52:52.217Z,28.27
2018-06-25T21:55:20.978Z,22.33
2018-06-25T21:57:49.778Z,17.50
2018-06-25T22:00:18.570Z,21.73
2018-06-25T22:02:47.452Z,18.10
2018-06-25T22:05:16.290Z,17.77
2018-06-25T22:07:45.149Z,17.73
2018-06-25T22:10:13.899Z,16.30
2018-06-25T22:12:42.495Z,18.57
2018-06-25T22:15:11.117Z,17.23
2018-06-25T22:17:39.971Z,19.77
2018-06-25T22:20:09.007Z,15.80
2018-06-25T22:22:37.856Z,18.00
2018-06-25T22:25:06.669Z,21.93
2018-06-25T22:27:35.461Z,19.47
2018-06-25T22:30:05.268Z,21.50
2018-06-25T22:32:34.032Z,23.00
2018-06-25T22:35:02.765Z,21.43
2018-06-25T22:37:31.550Z,20.30
2018-06-25T22:40:00.333Z,21.37
2018-06-25T22:42:29.123Z,19.70
2018-06-25T22:44:58.024Z,25.23
2018-06-25T22:47:26.799Z,17.47
2018-06-25T22:49:55.653Z,21.63
2018-06-25T22:52:24.452Z,15.97
2018-06-25T22:54:53.252Z,20.30
2018-06-25T22:57:22.106Z,21.77
2018-06-25T22:59:50.827Z,18.83
2018-06-25T23:02:19.519Z,19.67
2018-06-25T23:04:48.328Z,25.10
2018-06-25T23:07:17.072Z,33.27
2018-06-25T23:09:45.875Z,28.47
2018-06-25T23:12:15.102Z,36.33
2018-06-25T23:14:43.878Z,30.87
2018-06-25T23:17:12.642Z,35.93
2018-06-25T23:19:41.418Z,33.50
2018-06-25T23:22:10.229Z,38.23
2018-06-25T23:24:39.214Z,38.00
2018-06-25T23:27:08.206Z,34.57
2018-06-25T23:29:36.981Z,33.40
2018-06-25T23:32:05.617Z,29.77
2018-06-25T23:34:34.312Z,27.67
2018-06-25T23:37:03.169Z,25.23
2018-06-25T23:39:32.034Z,28.57
2018-06-25T23:42:00.821Z,22.43
2018-06-25T23:44:29.550Z,34.03
2018-06-25T23:46:58.328Z,30.67
2018-06-25T23:49:27.089Z,27.77
2018-06-25T23:51:55.899Z,21.27
2018-06-25T23:54:24.848Z,28.27
2018-06-25T23:56:53.622Z,22.10
2018-06-25T23:59:22.574Z,22.67
